Time;durP1;ratioP1;P1;durP2;ratioP2;P2;SDS_P1;SDS_P2;PMS_P1;PMS_P2;Temp;Humidity;BMP_temperature;BMP_pressure;BME280_temperature;BME280_humidity;BME280_pressure;Samples;Min_cycle;Max_cycle;Signal;HPM_P1;HPM_P2
2021/09/24 00:00:53;;;;;;;;;28.00;24.25;;;;;-146.80;100.00;64830.25;5077150;27;45518;-62
2021/09/24 00:03:19;;;;;;;;;27.25;22.50;;;;;-146.80;100.00;64830.25;5076960;27;45308;-62
2021/09/24 00:05:46;;;;;;;;;26.25;22.50;;;;;-146.80;100.00;64830.25;5076011;27;46125;-62
2021/09/24 00:08:11;;;;;;;;;28.00;24.50;;;;;-146.80;100.00;64830.25;5075879;28;45356;-62
2021/09/24 00:10:38;;;;;;;;;25.75;23.25;;;;;-146.80;100.00;64830.25;5076063;27;45235;-62
2021/09/24 00:13:03;;;;;;;;;28.25;24.25;;;;;-146.80;100.00;64830.25;5076725;27;45599;-64
2021/09/24 00:15:28;;;;;;;;;29.00;24.50;;;;;-146.80;100.00;64830.25;5075820;27;45510;-62
2021/09/24 00:17:54;;;;;;;;;22.50;20.25;;;;;-146.80;100.00;64830.25;5075311;28;45727;-61
2021/09/24 00:20:19;;;;;;;;;28.00;27.00;;;;;-146.80;100.00;64830.25;5076299;27;45243;-62
2021/09/24 00:22:44;;;;;;;;;25.50;23.25;;;;;-146.80;100.00;64830.25;5057870;28;45243;-62
2021/09/24 00:25:10;;;;;;;;;27.00;23.50;;;;;-146.80;100.00;64830.25;5075420;27;46228;-62
2021/09/24 00:27:35;;;;;;;;;32.00;27.25;;;;;-146.80;100.00;64830.25;5075630;27;45376;-63
2021/09/24 00:30:01;;;;;;;;;26.50;23.75;;;;;-146.80;100.00;64830.25;5074170;28;45321;-61
2021/09/24 00:32:26;;;;;;;;;31.25;26.00;;;;;-146.80;100.00;64830.25;5076636;27;45649;-62
2021/09/24 00:34:52;;;;;;;;;30.00;27.00;;;;;-146.80;100.00;64830.25;5075941;27;45462;-62
2021/09/24 00:37:17;;;;;;;;;34.75;28.50;;;;;-146.80;100.00;64830.25;5074077;28;45685;-62
2021/09/24 00:39:42;;;;;;;;;28.25;26.75;;;;;-146.80;100.00;64830.25;5075803;27;45440;-64
2021/09/24 00:42:08;;;;;;;;;29.25;26.50;;;;;-146.80;100.00;64830.25;5075957;27;45362;-66
2021/09/24 00:44:42;;;;;;;;;32.00;27.75;;;;;-146.80;100.00;64830.25;5075599;28;45407;-63
2021/09/24 00:47:07;;;;;;;;;30.00;27.50;;;;;-146.80;100.00;64830.25;5075748;27;45464;-62
2021/09/24 00:49:33;;;;;;;;;33.50;30.75;;;;;-146.80;100.00;64830.25;5075712;28;45426;-61
2021/09/24 00:51:58;;;;;;;;;35.00;31.25;;;;;-146.80;100.00;64830.25;5075902;27;45470;-61
2021/09/24 00:54:24;;;;;;;;;25.25;23.25;;;;;-146.80;100.00;64830.25;5076036;27;45865;-62
2021/09/24 00:56:52;;;;;;;;;33.00;29.25;;;;;-146.80;100.00;64830.25;5075269;27;45488;-61
2021/09/24 00:59:18;;;;;;;;;32.75;27.50;;;;;-146.80;100.00;64830.25;5075234;28;45471;-61
2021/09/24 01:01:43;;;;;;;;;29.00;27.50;;;;;-146.80;100.00;64830.25;5073991;27;45274;-61
2021/09/24 01:04:08;;;;;;;;;27.25;24.25;;;;;-146.80;100.00;64830.25;5075324;27;46247;-61
2021/09/24 01:06:35;;;;;;;;;26.50;25.25;;;;;-146.80;100.00;64830.25;5075210;27;45287;-62
2021/09/24 01:09:01;;;;;;;;;32.25;25.50;;;;;-146.80;100.00;64830.25;5090846;27;45192;-62
2021/09/24 01:11:26;;;;;;;;;27.75;26.75;;;;;-146.80;100.00;64830.25;5075736;27;45516;-61
2021/09/24 01:13:51;;;;;;;;;32.75;26.50;;;;;-146.80;100.00;64830.25;5074982;27;46754;-61
2021/09/24 01:16:17;;;;;;;;;34.00;32.50;;;;;-146.80;100.00;64830.25;5074917;27;45364;-62
2021/09/24 01:18:42;;;;;;;;;35.25;28.25;;;;;-146.80;100.00;64830.25;5075106;27;45469;-61
2021/09/24 01:21:11;;;;;;;;;31.25;26.25;;;;;-146.80;100.00;64830.25;5075161;27;45295;-61
2021/09/24 01:23:37;;;;;;;;;23.75;20.25;;;;;-146.80;100.00;64830.25;5074640;28;46606;-62
2021/09/24 01:26:02;;;;;;;;;23.25;21.00;;;;;-146.80;100.00;64830.25;5074655;28;45284;-62
2021/09/24 01:28:27;;;;;;;;;29.00;20.75;;;;;-146.80;100.00;64830.25;5075170;27;45362;-62
2021/09/24 01:30:53;;;;;;;;;22.50;20.00;;;;;-146.80;100.00;64830.25;5075028;27;45278;-62
2021/09/24 01:33:18;;;;;;;;;23.75;20.75;;;;;-146.80;100.00;64830.25;5074807;27;46218;-62
2021/09/24 01:35:44;;;;;;;;;26.50;22.25;;;;;-146.80;100.00;64830.25;5074887;27;45445;-63
2021/09/24 01:38:09;;;;;;;;;17.50;13.00;;;;;-146.80;100.00;64830.25;5074814;27;45729;-63
2021/09/24 01:40:34;;;;;;;;;23.50;14.75;;;;;-146.80;100.00;64830.25;5073686;28;45536;-62
2021/09/24 01:43:00;;;;;;;;;22.75;18.50;;;;;-146.80;100.00;64830.25;5074538;27;46406;-62
2021/09/24 01:45:26;;;;;;;;;18.00;18.00;;;;;-146.80;100.00;64830.25;5075205;27;45339;-63
2021/09/24 01:47:51;;;;;;;;;17.50;15.50;;;;;-146.80;100.00;64830.25;5074889;28;45343;-61
2021/09/24 01:50:17;;;;;;;;;16.25;14.75;;;;;-146.80;100.00;64830.25;5074901;27;45590;-62
2021/09/24 01:52:42;;;;;;;;;15.25;14.25;;;;;-146.80;100.00;64830.25;5090346;27;48136;-62
2021/09/24 01:55:09;;;;;;;;;16.25;16.00;;;;;-146.80;100.00;64830.25;5073276;28;45657;-62
2021/09/24 01:57:36;;;;;;;;;16.25;15.00;;;;;-146.80;100.00;64830.25;5074888;28;45377;-61
2021/09/24 02:00:02;;;;;;;;;17.50;15.75;;;;;-146.80;100.00;64830.25;5074760;27;45542;-61
2021/09/24 02:02:28;;;;;;;;;15.25;14.50;;;;;-146.80;100.00;64830.25;5074385;28;45389;-62
2021/09/24 02:04:53;;;;;;;;;17.50;16.50;;;;;-146.80;100.00;64830.25;5074184;27;45257;-63
2021/09/24 02:07:18;;;;;;;;;22.00;16.00;;;;;-146.80;100.00;64830.25;5073069;28;45378;-62
2021/09/24 02:09:44;;;;;;;;;17.50;16.00;;;;;-146.80;100.00;64830.25;5074565;27;45558;-61
2021/09/24 02:12:09;;;;;;;;;13.50;13.50;;;;;-146.80;100.00;64830.25;5074163;27;46390;-61
2021/09/24 02:14:35;;;;;;;;;18.25;16.25;;;;;-146.80;100.00;64830.25;5074560;27;45253;-61
2021/09/24 02:17:03;;;;;;;;;21.25;18.00;;;;;-146.80;100.00;64830.25;5074706;27;45311;-64
2021/09/24 02:19:28;;;;;;;;;22.50;17.25;;;;;-146.80;100.00;64830.25;5075423;27;45335;-63
2021/09/24 02:21:54;;;;;;;;;25.25;21.75;;;;;-146.80;100.00;64830.25;5075807;27;45449;-62
2021/09/24 02:24:19;;;;;;;;;23.50;19.00;;;;;-146.80;100.00;64830.25;5077985;27;45353;-64
2021/09/24 02:26:45;;;;;;;;;21.75;17.50;;;;;-146.80;100.00;64830.25;5078218;27;45668;-63
2021/09/24 02:29:11;;;;;;;;;21.25;18.50;;;;;-146.80;100.00;64830.25;5078120;27;45496;-63
2021/09/24 02:31:37;;;;;;;;;25.25;19.50;;;;;-146.80;100.00;64830.25;5077689;28;45521;-62
2021/09/24 02:34:03;;;;;;;;;17.75;16.50;;;;;-146.80;100.00;64830.25;5077951;28;45295;-62
2021/09/24 02:36:29;;;;;;;;;19.50;16.75;;;;;-146.80;100.00;64830.25;5094564;27;45352;-61
2021/09/24 02:38:54;;;;;;;;;18.00;16.00;;;;;-146.80;100.00;64830.25;5093743;27;45489;-62
2021/09/24 02:41:19;;;;;;;;;10.50;9.25;;;;;-146.80;100.00;64830.25;5077586;27;46683;-62
2021/09/24 02:43:45;;;;;;;;;20.25;17.00;;;;;-146.80;100.00;64830.25;5059134;28;45650;-61
2021/09/24 02:46:10;;;;;;;;;21.50;18.75;;;;;-146.80;100.00;64830.25;5076296;28;45313;-62
2021/09/24 02:48:35;;;;;;;;;20.25;18.25;;;;;-146.80;100.00;64830.25;5077676;27;45354;-62
2021/09/24 02:51:01;;;;;;;;;17.00;16.00;;;;;-146.80;100.00;64830.25;5077911;27;46364;-62
2021/09/24 02:53:26;;;;;;;;;19.75;16.25;;;;;-146.80;100.00;64830.25;5077270;27;45383;-61
2021/09/24 02:55:52;;;;;;;;;19.75;15.50;;;;;-146.80;100.00;64830.25;5093086;27;45323;-61
2021/09/24 02:58:17;;;;;;;;;18.50;15.50;;;;;-146.80;100.00;64830.25;5077310;27;45607;-62
2021/09/24 03:00:43;;;;;;;;;16.25;14.00;;;;;-146.80;100.00;64830.25;5092729;27;48252;-61
2021/09/24 03:03:08;;;;;;;;;17.00;14.50;;;;;-146.80;100.00;64830.25;5075718;28;45511;-61
2021/09/24 03:05:35;;;;;;;;;16.50;14.75;;;;;-146.80;100.00;64830.25;5093513;27;45421;-62
2021/09/24 03:08:01;;;;;;;;;16.50;13.50;;;;;-146.80;100.00;64830.25;5077659;27;45493;-62
2021/09/24 03:10:27;;;;;;;;;14.00;12.75;;;;;-146.80;100.00;64830.25;5076911;27;45621;-60
2021/09/24 03:12:52;;;;;;;;;12.50;12.50;;;;;-146.80;100.00;64830.25;5077061;27;45219;-61
2021/09/24 03:15:17;;;;;;;;;12.50;11.25;;;;;-146.80;100.00;64830.25;5077010;27;45319;-62
2021/09/24 03:17:43;;;;;;;;;9.75;8.75;;;;;-146.80;100.00;64830.25;5077506;27;45271;-63
2021/09/24 03:20:09;;;;;;;;;12.00;10.00;;;;;-146.80;100.00;64830.25;5076705;27;45533;-64
2021/09/24 03:22:35;;;;;;;;;9.25;8.50;;;;;-146.80;100.00;64830.25;5076371;27;45286;-64
2021/09/24 03:25:01;;;;;;;;;8.75;7.50;;;;;-146.80;100.00;64830.25;5077512;28;45270;-63
2021/09/24 03:27:27;;;;;;;;;9.25;9.00;;;;;-146.80;100.00;64830.25;5077252;27;45540;-62
2021/09/24 03:29:52;;;;;;;;;14.00;11.25;;;;;-146.80;100.00;64830.25;5076524;27;45446;-62
2021/09/24 03:32:20;;;;;;;;;12.00;11.00;;;;;-146.80;100.00;64830.25;5075866;27;45397;-61
2021/09/24 03:34:47;;;;;;;;;16.00;12.00;;;;;-146.80;100.00;64830.25;5076307;27;45444;-63
2021/09/24 03:37:13;;;;;;;;;14.75;10.75;;;;;-146.80;100.00;64830.25;5076666;27;45545;-62
2021/09/24 03:39:39;;;;;;;;;15.00;12.00;;;;;-146.80;100.00;64830.25;5076457;27;46547;-63
2021/09/24 03:42:05;;;;;;;;;15.00;14.75;;;;;-146.80;100.00;64830.25;5077035;28;45366;-62
2021/09/24 03:44:30;;;;;;;;;9.25;8.75;;;;;-146.80;100.00;64830.25;5076856;28;45251;-60
2021/09/24 03:46:56;;;;;;;;;9.00;9.00;;;;;-146.80;100.00;64830.25;5076764;27;45154;-60
2021/09/24 03:49:21;;;;;;;;;8.00;6.75;;;;;-146.80;100.00;64830.25;5076531;27;46076;-61
2021/09/24 03:51:46;;;;;;;;;7.00;7.00;;;;;-146.80;100.00;64830.25;5092258;27;45255;-62
2021/09/24 03:54:12;;;;;;;;;10.25;8.25;;;;;-146.80;100.00;64830.25;5076484;27;45449;-63
2021/09/24 03:56:37;;;;;;;;;6.00;6.00;;;;;-146.80;100.00;64830.25;5076419;27;45378;-64
2021/09/24 03:59:02;;;;;;;;;9.50;8.00;;;;;-146.80;100.00;64830.25;5076239;27;45388;-62
2021/09/24 04:01:28;;;;;;;;;8.25;7.25;;;;;-146.80;100.00;64830.25;5074612;28;45555;-62
2021/09/24 04:03:54;;;;;;;;;8.00;7.00;;;;;-146.80;100.00;64830.25;5091787;27;45408;-61
2021/09/24 04:06:19;;;;;;;;;7.50;7.50;;;;;-146.80;100.00;64830.25;5076487;27;45353;-63
2021/09/24 04:08:44;;;;;;;;;11.50;8.00;;;;;-146.80;100.00;64830.25;5076177;27;46210;-61
2021/09/24 04:11:10;;;;;;;;;9.00;7.75;;;;;-146.80;100.00;64830.25;5075850;27;45328;-63
2021/09/24 04:13:35;;;;;;;;;9.75;9.75;;;;;-146.80;100.00;64830.25;5076349;27;45382;-63
2021/09/24 04:16:00;;;;;;;;;9.00;7.00;;;;;-146.80;100.00;64830.25;5075925;27;45595;-63
2021/09/24 04:18:26;;;;;;;;;9.25;8.25;;;;;-146.80;100.00;64830.25;5075529;27;46270;-63
2021/09/24 04:20:51;;;;;;;;;8.00;7.00;;;;;-146.80;100.00;64830.25;5075971;27;45432;-63
2021/09/24 04:23:17;;;;;;;;;7.00;6.00;;;;;-146.80;100.00;64830.25;5075688;27;45365;-62
2021/09/24 04:25:42;;;;;;;;;6.50;6.00;;;;;-146.80;100.00;64830.25;5075727;28;45171;-62
2021/09/24 04:28:08;;;;;;;;;5.75;5.00;;;;;-146.80;100.00;64830.25;5075576;27;46280;-64
2021/09/24 04:30:33;;;;;;;;;8.00;7.00;;;;;-146.80;100.00;64830.25;5075876;27;45282;-62
2021/09/24 04:32:59;;;;;;;;;8.00;7.50;;;;;-146.80;100.00;64830.25;5075289;27;45403;-61
2021/09/24 04:35:24;;;;;;;;;7.00;5.75;;;;;-146.80;100.00;64830.25;5076143;28;45587;-60
2021/09/24 04:37:53;;;;;;;;;11.00;8.00;;;;;-146.80;100.00;64830.25;5076483;27;45690;-62
2021/09/24 04:40:19;;;;;;;;;8.00;7.50;;;;;-146.80;100.00;64830.25;5075913;27;45318;-61
2021/09/24 04:42:44;;;;;;;;;8.50;7.00;;;;;-146.80;100.00;64830.25;5075477;27;45339;-62
2021/09/24 04:45:10;;;;;;;;;4.00;4.00;;;;;-146.80;100.00;64830.25;5075465;27;45317;-63
2021/09/24 04:47:36;;;;;;;;;8.75;7.50;;;;;-146.80;100.00;64830.25;5076368;27;46465;-62
2021/09/24 04:50:04;;;;;;;;;16.00;12.75;;;;;-146.80;100.00;64830.25;5057483;28;45402;-62
2021/09/24 04:52:29;;;;;;;;;15.00;12.25;;;;;-146.80;100.00;64830.25;5091651;27;45353;-62
2021/09/24 04:54:55;;;;;;;;;11.75;8.25;;;;;-146.80;100.00;64830.25;5074927;28;45346;-63
2021/09/24 04:57:21;;;;;;;;;10.25;9.00;;;;;-146.80;100.00;64830.25;5075551;27;45938;-63
2021/09/24 04:59:47;;;;;;;;;13.00;8.75;;;;;-146.80;100.00;64830.25;5075016;27;45206;-61
2021/09/24 05:02:14;;;;;;;;;12.75;10.25;;;;;-146.80;100.00;64830.25;5073899;28;45813;-63
2021/09/24 05:04:40;;;;;;;;;13.75;9.50;;;;;-146.80;100.00;64830.25;5092015;27;45476;-62
2021/09/24 05:07:06;;;;;;;;;9.75;9.00;;;;;-146.80;100.00;64830.25;5076092;27;45498;-64
2021/09/24 05:09:31;;;;;;;;;11.75;10.00;;;;;-146.80;100.00;64830.25;5074291;28;45643;-64
2021/09/24 05:11:57;;;;;;;;;8.50;8.25;;;;;-146.80;100.00;64830.25;5076235;27;45339;-61
2021/09/24 05:14:24;;;;;;;;;12.75;10.00;;;;;-146.80;100.00;64830.25;5076617;27;45369;-62
2021/09/24 05:16:52;;;;;;;;;9.50;7.50;;;;;-146.80;100.00;64830.25;5091661;27;45698;-62
2021/09/24 05:19:18;;;;;;;;;14.75;10.25;;;;;-146.80;100.00;64830.25;5076192;28;45373;-63
2021/09/24 05:21:44;;;;;;;;;11.00;11.00;;;;;-146.80;100.00;64830.25;5076327;27;45454;-62
2021/09/24 05:24:09;;;;;;;;;24.25;19.50;;;;;-146.80;100.00;64830.25;5077037;27;45396;-63
2021/09/24 05:26:34;;;;;;;;;17.00;13.75;;;;;-146.80;100.00;64830.25;5075956;27;45464;-62
2021/09/24 05:29:00;;;;;;;;;11.00;11.00;;;;;-146.80;100.00;64830.25;5075645;27;45417;-63
2021/09/24 05:31:25;;;;;;;;;11.00;10.25;;;;;-146.80;100.00;64830.25;5091296;27;45986;-64
2021/09/24 05:33:52;;;;;;;;;12.75;10.75;;;;;-146.80;100.00;64830.25;5075948;28;45555;-63
2021/09/24 05:36:17;;;;;;;;;13.00;10.50;;;;;-146.80;100.00;64830.25;5075623;27;45260;-62
2021/09/24 05:38:43;;;;;;;;;15.00;9.25;;;;;-146.80;100.00;64830.25;5075576;28;45373;-61
2021/09/24 05:41:08;;;;;;;;;9.75;9.75;;;;;-146.80;100.00;64830.25;5074778;28;45341;-62
2021/09/24 05:43:35;;;;;;;;;8.00;8.00;;;;;-146.80;100.00;64830.25;5075905;27;45553;-62
2021/09/24 05:46:00;;;;;;;;;13.25;9.25;;;;;-146.80;100.00;64830.25;5075639;27;46428;-64
2021/09/24 05:48:28;;;;;;;;;9.75;9.25;;;;;-146.80;100.00;64830.25;5075724;28;45472;-62
2021/09/24 05:50:54;;;;;;;;;7.25;7.25;;;;;-146.80;100.00;64830.25;5075938;27;45321;-62
2021/09/24 05:53:19;;;;;;;;;10.25;9.00;;;;;-146.80;100.00;64830.25;5075253;27;45520;-61
2021/09/24 05:55:45;;;;;;;;;11.25;7.25;;;;;-146.80;100.00;64830.25;5074514;27;45432;-60
2021/09/24 05:58:10;;;;;;;;;12.00;12.00;;;;;-146.80;100.00;64830.25;5078277;28;45311;-63
2021/09/24 06:00:35;;;;;;;;;10.75;9.50;;;;;-146.80;100.00;64830.25;5076477;28;45393;-72
2021/09/24 06:03:01;;;;;;;;;10.25;10.25;;;;;-146.80;100.00;64830.25;5078321;27;45557;-74
2021/09/24 06:05:26;;;;;;;;;10.50;8.75;;;;;-146.80;100.00;64830.25;5077934;27;45711;-67
2021/09/24 06:07:52;;;;;;;;;11.75;11.75;;;;;-146.80;100.00;64830.25;5078138;27;45392;-68
2021/09/24 06:10:18;;;;;;;;;16.00;12.00;;;;;-146.80;100.00;64830.25;5078137;27;45358;-68
2021/09/24 06:12:47;;;;;;;;;10.00;9.00;;;;;-146.80;100.00;64830.25;5078286;27;45556;-66
2021/09/24 06:15:14;;;;;;;;;19.25;15.00;;;;;-146.80;100.00;64830.25;5076574;28;47303;-68
2021/09/24 06:17:40;;;;;;;;;17.00;12.50;;;;;-146.80;100.00;64830.25;5077934;27;45456;-69
2021/09/24 06:20:07;;;;;;;;;22.75;16.50;;;;;-146.80;100.00;64830.25;5077943;28;45330;-66
2021/09/24 06:22:32;;;;;;;;;23.50;15.75;;;;;-146.80;100.00;64830.25;5076352;27;45247;-69
2021/09/24 06:24:59;;;;;;;;;17.25;13.75;;;;;-146.80;100.00;64830.25;5077184;27;48311;-65
2021/09/24 06:27:25;;;;;;;;;14.75;12.25;;;;;-146.80;100.00;64830.25;5092945;27;45326;-63
2021/09/24 06:29:54;;;;;;;;;12.00;11.25;;;;;-146.80;100.00;64830.25;5077780;27;45418;-65
2021/09/24 06:32:20;;;;;;;;;16.00;11.50;;;;;-146.80;100.00;64830.25;5076514;28;45572;-66
2021/09/24 06:34:46;;;;;;;;;13.75;12.50;;;;;-146.80;100.00;64830.25;5077407;27;45707;-66
2021/09/24 06:37:12;;;;;;;;;16.75;14.00;;;;;-146.80;100.00;64830.25;5093496;27;45327;-71
2021/09/24 06:39:38;;;;;;;;;17.50;14.25;;;;;-146.80;100.00;64830.25;5077953;28;45276;-63
2021/09/24 06:42:04;;;;;;;;;14.50;12.75;;;;;-146.80;100.00;64830.25;5077759;28;45351;-64
2021/09/24 06:44:30;;;;;;;;;18.25;14.50;;;;;-146.80;100.00;64830.25;5092933;27;48283;-64
2021/09/24 06:46:55;;;;;;;;;22.25;14.00;;;;;-146.80;100.00;64830.25;5076292;27;45734;-64
2021/09/24 06:49:23;;;;;;;;;19.00;16.00;;;;;-146.80;100.00;64830.25;5077463;27;45431;-64
2021/09/24 06:51:53;;;;;;;;;21.25;17.00;;;;;-146.80;100.00;64830.25;5076067;27;45476;-64
2021/09/24 06:54:19;;;;;;;;;30.75;22.75;;;;;-146.80;100.00;64830.25;5092618;27;45490;-63
2021/09/24 06:56:45;;;;;;;;;20.00;15.25;;;;;-146.80;100.00;64830.25;5092853;27;45780;-63
2021/09/24 06:59:10;;;;;;;;;22.25;19.25;;;;;-146.80;100.00;64830.25;5076153;28;45366;-64
2021/09/24 07:01:36;;;;;;;;;23.25;18.75;;;;;-146.80;100.00;64830.25;5077333;27;45459;-65
2021/09/24 07:04:02;;;;;;;;;18.50;17.50;;;;;-146.80;100.00;64830.25;5077039;27;45367;-63
2021/09/24 07:06:27;;;;;;;;;29.50;28.00;;;;;-146.80;100.00;64830.25;5077268;27;45390;-64
2021/09/24 07:08:53;;;;;;;;;19.25;17.50;;;;;-146.80;100.00;64830.25;5075786;28;45838;-63
2021/09/24 07:11:18;;;;;;;;;19.00;18.00;;;;;-146.80;100.00;64830.25;5076506;28;45492;-64
2021/09/24 07:13:44;;;;;;;;;22.25;17.50;;;;;-146.80;100.00;64830.25;5077839;27;45461;-63
2021/09/24 07:16:09;;;;;;;;;22.50;19.75;;;;;-146.80;100.00;64830.25;5076524;28;45418;-65
2021/09/24 07:18:35;;;;;;;;;22.25;19.50;;;;;-146.80;100.00;64830.25;5078812;27;45364;-65
2021/09/24 07:21:00;;;;;;;;;22.50;17.75;;;;;-146.80;100.00;64830.25;5079470;27;45598;-64
2021/09/24 07:23:26;;;;;;;;;20.00;17.75;;;;;-146.80;100.00;64830.25;5077847;27;46275;-64
2021/09/24 07:25:52;;;;;;;;;27.50;20.00;;;;;-146.80;100.00;64830.25;5092455;27;45499;-65
2021/09/24 07:28:18;;;;;;;;;26.75;20.25;;;;;-146.80;100.00;64830.25;5075462;28;45276;-66
2021/09/24 07:30:44;;;;;;;;;22.25;19.00;;;;;-146.80;100.00;64830.25;5077425;27;45309;-63
2021/09/24 07:33:09;;;;;;;;;26.00;23.50;;;;;-146.80;100.00;64830.25;5076645;27;45703;-64
2021/09/24 07:35:35;;;;;;;;;26.00;20.50;;;;;-146.80;100.00;64830.25;5075446;28;45536;-64
2021/09/24 07:38:01;;;;;;;;;32.50;26.00;;;;;-146.80;100.00;64830.25;5076851;27;45274;-63
2021/09/24 07:40:27;;;;;;;;;27.50;22.50;;;;;-146.80;100.00;64830.25;5077057;27;45675;-64
2021/09/24 07:42:54;;;;;;;;;25.25;23.00;;;;;-146.80;100.00;64830.25;5076564;28;46154;-64
2021/09/24 07:45:21;;;;;;;;;28.50;21.75;;;;;-146.80;100.00;64830.25;5076529;27;45407;-66
2021/09/24 07:47:46;;;;;;;;;23.75;19.00;;;;;-146.80;100.00;64830.25;5076774;28;45430;-64
2021/09/24 07:50:12;;;;;;;;;24.50;20.50;;;;;-146.80;100.00;64830.25;5076625;28;45313;-63
2021/09/24 07:52:37;;;;;;;;;23.50;23.25;;;;;-146.80;100.00;64830.25;5076390;27;45658;-63
2021/09/24 07:55:04;;;;;;;;;36.25;30.25;;;;;-146.80;100.00;64830.25;5076567;27;45376;-63
2021/09/24 07:57:29;;;;;;;;;28.50;24.00;;;;;-146.80;100.00;64830.25;5076482;28;45460;-64
2021/09/24 07:59:55;;;;;;;;;27.25;22.00;;;;;-146.80;100.00;64830.25;5076922;27;45232;-64
2021/09/24 08:02:21;;;;;;;;;27.50;22.75;;;;;-146.80;100.00;64830.25;5076518;28;46204;-63
2021/09/24 08:04:46;;;;;;;;;27.75;25.50;;;;;-146.80;100.00;64830.25;5076588;27;45267;-65
2021/09/24 08:07:13;;;;;;;;;23.50;22.50;;;;;-146.80;100.00;64830.25;5076109;27;45297;-63
2021/09/24 08:09:38;;;;;;;;;21.75;19.50;;;;;-146.80;100.00;64830.25;5076121;27;45388;-63
2021/09/24 08:12:04;;;;;;;;;28.00;24.00;;;;;-146.80;100.00;64830.25;5074274;28;48170;-65
2021/09/24 08:14:30;;;;;;;;;20.50;20.50;;;;;-146.80;100.00;64830.25;5074426;28;45593;-64
2021/09/24 08:16:55;;;;;;;;;24.50;19.75;;;;;-146.80;100.00;64830.25;5074667;28;45421;-64
2021/09/24 08:19:21;;;;;;;;;20.50;18.00;;;;;-146.80;100.00;64830.25;5075755;27;45392;-64
2021/09/24 08:21:46;;;;;;;;;39.50;33.00;;;;;-146.80;100.00;64830.25;5076454;27;46910;-63
2021/09/24 08:24:12;;;;;;;;;26.25;24.50;;;;;-146.80;100.00;64830.25;5076230;27;45455;-64
2021/09/24 08:26:37;;;;;;;;;23.00;20.00;;;;;-146.80;100.00;64830.25;5076282;27;45376;-64
2021/09/24 08:29:03;;;;;;;;;28.75;21.25;;;;;-146.80;100.00;64830.25;5074786;27;45470;-64
2021/09/24 08:31:30;;;;;;;;;26.25;22.25;;;;;-146.80;100.00;64830.25;5091078;27;47677;-64
2021/09/24 08:33:58;;;;;;;;;26.00;21.75;;;;;-146.80;100.00;64830.25;5075927;27;45409;-65
2021/09/24 08:36:24;;;;;;;;;30.50;27.00;;;;;-146.80;100.00;64830.25;5074510;28;45267;-64
2021/09/24 08:38:49;;;;;;;;;27.50;24.75;;;;;-146.80;100.00;64830.25;5074669;27;45424;-64
2021/09/24 08:41:15;;;;;;;;;60.00;48.25;;;;;-146.80;100.00;64830.25;5075682;27;46564;-64
2021/09/24 08:43:41;;;;;;;;;32.50;28.25;;;;;-146.80;100.00;64830.25;5075302;27;45879;-64
2021/09/24 08:46:06;;;;;;;;;27.25;25.25;;;;;-146.80;100.00;64830.25;5075762;27;45470;-65
2021/09/24 08:48:34;;;;;;;;;37.25;33.00;;;;;-146.80;100.00;64830.25;5075640;27;45561;-63
2021/09/24 08:50:59;;;;;;;;;38.75;30.75;;;;;-146.80;100.00;64830.25;5075149;27;45351;-64
2021/09/24 08:53:26;;;;;;;;;34.50;31.25;;;;;-146.80;100.00;64830.25;5075398;28;45358;-64
2021/09/24 08:55:52;;;;;;;;;33.25;27.25;;;;;-146.80;100.00;64830.25;5075834;28;45245;-63
2021/09/24 08:58:18;;;;;;;;;33.25;27.50;;;;;-146.80;100.00;64830.25;5076240;27;45564;-64
2021/09/24 09:00:45;;;;;;;;;29.50;25.50;;;;;-146.80;100.00;64830.25;5075401;28;46022;-66
2021/09/24 09:03:13;;;;;;;;;33.00;27.75;;;;;-146.80;100.00;64830.25;5075337;27;45316;-63
2021/09/24 09:05:39;;;;;;;;;29.50;26.50;;;;;-146.80;100.00;64830.25;5074352;28;45446;-64
2021/09/24 09:08:14;;;;;;;;;26.25;24.00;;;;;-146.80;100.00;64830.25;5075461;27;45607;-65
2021/09/24 09:10:55;;;;;;;;;33.25;25.00;;;;;-146.80;100.00;64830.25;5075370;28;47342;-63
2021/09/24 09:13:22;;;;;;;;;26.00;21.00;;;;;-146.80;100.00;64830.25;5074221;28;45394;-64
2021/09/24 09:16:07;;;;;;;;;26.75;21.75;;;;;-146.80;100.00;64830.25;5075793;27;45405;-65
2021/09/24 09:18:35;;;;;;;;;28.25;24.25;;;;;-146.80;100.00;64830.25;5074099;28;45391;-64
2021/09/24 09:21:04;;;;;;;;;23.00;20.75;;;;;-146.80;100.00;64830.25;5075067;27;46145;-65
2021/09/24 09:23:31;;;;;;;;;26.75;23.75;;;;;-146.80;100.00;64830.25;5075046;27;45607;-66
2021/09/24 09:26:00;;;;;;;;;30.50;26.75;;;;;-146.80;100.00;64830.25;5074474;27;45409;-65
2021/09/24 09:28:34;;;;;;;;;28.25;25.75;;;;;-146.80;100.00;64830.25;5073852;28;45571;-65
2021/09/24 09:31:00;;;;;;;;;21.50;21.50;;;;;-146.80;100.00;64830.25;5075063;28;47864;-65
2021/09/24 09:33:26;;;;;;;;;21.50;19.50;;;;;-146.80;100.00;64830.25;5076957;28;45520;-64
2021/09/24 09:35:58;;;;;;;;;24.50;21.75;;;;;-146.80;100.00;64830.25;5077563;28;45478;-64
2021/09/24 09:38:30;;;;;;;;;18.75;17.25;;;;;-146.80;100.00;64830.25;5079024;27;45254;-65
2021/09/24 09:41:07;;;;;;;;;54.50;42.75;;;;;-146.80;100.00;64830.25;5078288;27;45447;-63
2021/09/24 09:43:48;;;;;;;;;24.50;23.00;;;;;-146.80;100.00;64830.25;5078367;27;45446;-64
2021/09/24 09:46:17;;;;;;;;;22.50;19.00;;;;;-146.80;100.00;64830.25;5078630;27;45348;-64
2021/09/24 09:48:59;;;;;;;;;18.75;17.50;;;;;-146.80;100.00;64830.25;5078686;27;45273;-64
2021/09/24 09:51:25;;;;;;;;;22.75;20.25;;;;;-146.80;100.00;64830.25;5078207;28;46812;-65
2021/09/24 09:53:50;;;;;;;;;20.75;16.25;;;;;-146.80;100.00;64830.25;5078457;27;45379;-64
2021/09/24 09:56:18;;;;;;;;;17.75;14.50;;;;;-146.80;100.00;64830.25;5078162;27;45402;-63
2021/09/24 09:58:44;;;;;;;;;27.00;21.50;;;;;-146.80;100.00;64830.25;5078377;27;45603;-64
2021/09/24 10:01:16;;;;;;;;;25.50;20.75;;;;;-146.80;100.00;64830.25;5077596;27;45614;-64
2021/09/24 10:03:47;;;;;;;;;27.00;24.50;;;;;-146.80;100.00;64830.25;5077697;27;45438;-64
2021/09/24 10:06:27;;;;;;;;;22.75;18.50;;;;;-146.80;100.00;64830.25;5076214;28;45446;-64
2021/09/24 10:09:00;;;;;;;;;19.50;17.75;;;;;-146.80;100.00;64830.25;5076764;27;45417;-65
2021/09/24 10:11:38;;;;;;;;;22.25;21.00;;;;;-146.80;100.00;64830.25;5077439;27;46270;-66
2021/09/24 10:14:12;;;;;;;;;25.25;22.75;;;;;-146.80;100.00;64830.25;5078036;27;45266;-65
2021/09/24 10:16:47;;;;;;;;;19.50;17.25;;;;;-146.80;100.00;64830.25;5078031;27;45435;-64
2021/09/24 10:19:14;;;;;;;;;22.50;20.75;;;;;-146.80;100.00;64830.25;5078153;27;45235;-65
2021/09/24 10:21:41;;;;;;;;;21.25;20.00;;;;;-146.80;100.00;64830.25;5077537;27;48065;-65
2021/09/24 10:24:07;;;;;;;;;24.25;20.50;;;;;-146.80;100.00;64830.25;5076195;28;45440;-64
2021/09/24 10:26:37;;;;;;;;;24.25;24.00;;;;;-146.80;100.00;64830.25;5077982;27;45416;-65
2021/09/24 10:29:07;;;;;;;;;28.00;24.00;;;;;-146.80;100.00;64830.25;5077566;27;45550;-65
2021/09/24 10:31:38;;;;;;;;;22.25;19.50;;;;;-146.80;100.00;64830.25;5092952;27;46182;-64
2021/09/24 10:34:06;;;;;;;;;20.75;16.75;;;;;-146.80;100.00;64830.25;5077507;27;45212;-63
2021/09/24 10:36:37;;;;;;;;;33.75;29.75;;;;;-146.80;100.00;64830.25;5075958;27;45342;-64
2021/09/24 10:39:22;;;;;;;;;23.50;20.75;;;;;-146.80;100.00;64830.25;5077818;28;45410;-65
2021/09/24 10:42:15;;;;;;;;;21.75;19.50;;;;;-146.80;100.00;64830.25;5092979;27;48714;-64
2021/09/24 10:45:14;;;;;;;;;21.75;19.75;;;;;-146.80;100.00;64830.25;5076026;27;45314;-65
2021/09/24 10:48:00;;;;;;;;;25.25;22.00;;;;;-146.80;100.00;64830.25;5077297;28;45289;-67
2021/09/24 10:50:47;;;;;;;;;52.00;43.75;;;;;-146.80;100.00;64830.25;5077612;27;45356;-64
2021/09/24 10:53:19;;;;;;;;;31.00;29.00;;;;;-146.80;100.00;64830.25;5076722;27;45659;-64
2021/09/24 10:55:54;;;;;;;;;25.00;23.00;;;;;-146.80;100.00;64830.25;5076763;28;45229;-64